page 8078 of 1011607 registered users

eBook PostsUsers

  1. 0tankerneed92 registered @ 2013-06-26 19:56:58, last login @ 2013-06-26 19:56:58
  2. 0garagebrush78 registered @ 2013-06-26 19:57:35, last login @ 2013-06-26 19:57:35
  3. 0tailor3temple registered @ 2013-06-26 20:02:02, last login @ 2013-06-26 20:02:02
  4. 0congachair36 registered @ 2013-06-26 20:02:24, last login @ 2013-06-26 20:30:56
  5. 0black3fall registered @ 2013-06-26 20:03:51, last login @ 2013-06-26 20:03:51
  6. 0sand58nerve registered @ 2013-06-26 20:04:00, last login @ 2013-06-26 20:04:00
  7. 0beechcoin3 registered @ 2013-06-26 20:05:20, last login @ 2013-06-26 20:52:08
  8. 0geesemale3 registered @ 2013-06-26 20:07:39, last login @ 2013-06-26 20:07:39
  9. 0motherleaf4 registered @ 2013-06-26 20:10:10, last login @ 2013-06-26 20:10:10
  10. 0yarn7garden registered @ 2013-06-26 20:11:30, last login @ 2013-06-26 20:11:30
  11. 0owl6mirror registered @ 2013-06-26 20:11:39, last login @ 2013-06-26 20:11:39
  12. 0banjophone0 registered @ 2013-06-26 20:12:14, last login @ 2013-06-26 20:12:14
  13. 0turtlebrake09 registered @ 2013-06-26 20:14:22, last login @ 2013-06-26 20:14:22
  14. 0metal4smash registered @ 2013-06-26 20:14:45, last login @ 2013-06-26 20:14:45
  15. 0pantsdecade4 registered @ 2013-06-26 20:14:47, last login @ 2013-06-26 20:14:47
  16. 0price2bay registered @ 2013-06-26 20:16:06, last login @ 2013-06-26 20:31:06
  17. 0cactusfridge05 registered @ 2013-06-26 20:16:16, last login @ 2013-06-26 20:16:16
  18. 0SURENDRAGYERNAL registered @ 2013-06-26 20:17:19, last login @ 2013-06-26 20:17:19
  19. 0idea22jacket registered @ 2013-06-26 20:17:21, last login @ 2013-06-26 20:17:21
  20. 0hall8faucet registered @ 2013-06-26 20:20:20, last login @ 2013-06-26 20:36:42
  21. 0cellolaw3 registered @ 2013-06-26 20:20:35, last login @ 2013-06-26 20:38:40
  22. 0shockbeef5 registered @ 2013-06-26 20:21:57, last login @ 2013-06-26 20:21:57
  23. 0hyenaspoon5 registered @ 2013-06-26 20:22:21, last login @ 2013-06-26 20:37:39
  24. 0musicthroat93 registered @ 2013-06-26 20:23:04, last login @ 2013-06-26 20:23:04
  25. 0coffee33yoke registered @ 2013-06-26 20:24:03, last login @ 2013-06-26 20:36:06
  26. 0japan41tea registered @ 2013-06-26 20:24:24, last login @ 2013-06-26 20:24:24
  27. 0hen7quit registered @ 2013-06-26 20:26:26, last login @ 2013-06-26 20:26:26
  28. 0dummpost registered @ 2013-06-26 20:29:52, last login @ 2013-06-26 20:39:52
  29. 0jefforder23 registered @ 2013-06-26 20:30:05, last login @ 2013-06-26 20:30:05
  30. 0schoolpond03 registered @ 2013-06-26 20:31:14, last login @ 2013-06-26 20:31:14
  31. 0hoeblow53 registered @ 2013-06-26 20:32:37, last login @ 2013-06-26 20:32:37
  32. 0rub15roast registered @ 2013-06-26 20:35:58, last login @ 2013-06-26 20:35:58
  33. 0kickbugle82 registered @ 2013-06-26 20:37:21, last login @ 2013-06-26 20:37:21
  34. 0edger8frog registered @ 2013-06-26 20:46:28, last login @ 2013-06-26 20:46:28
  35. 0dew43twine registered @ 2013-06-26 20:47:30, last login @ 2013-06-26 20:47:30
  36. 0cell72mallet registered @ 2013-06-26 20:47:34, last login @ 2013-06-26 20:47:34
  37. 0form59quail registered @ 2013-06-26 20:48:21, last login @ 2013-06-26 20:48:21
  38. 0buffetjuice26 registered @ 2013-06-26 20:48:32, last login @ 2013-06-26 20:48:32
  39. 0tenthelium8 registered @ 2013-06-26 20:48:46, last login @ 2013-06-26 20:48:46
  40. 0stickchard8 registered @ 2013-06-26 20:49:12, last login @ 2013-06-26 20:49:12
  41. 0india6korean registered @ 2013-06-26 20:51:03, last login @ 2013-06-26 20:51:03
  42. 0yardlunch10 registered @ 2013-06-26 20:52:17, last login @ 2013-06-26 20:52:17
  43. 0chord9pastor registered @ 2013-06-26 20:52:56, last login @ 2013-06-26 20:52:56
  44. 0jet7pasta registered @ 2013-06-26 20:53:20, last login @ 2013-06-26 20:53:20
  45. 0quartflood9 registered @ 2013-06-26 20:53:45, last login @ 2013-06-26 20:53:45
  46. 0zincborder70 registered @ 2013-06-26 20:55:05, last login @ 2013-06-26 20:55:05
  47. 0slime38jar registered @ 2013-06-26 20:55:14, last login @ 2013-06-26 20:55:14
  48. 0kitty4bath registered @ 2013-06-26 20:56:28, last login @ 2013-06-26 20:56:28
  49. 0land77date registered @ 2013-06-26 20:56:29, last login @ 2013-06-26 20:56:29
  50. 0detailicicle46 registered @ 2013-06-26 20:56:31, last login @ 2013-06-26 20:56:31
  51. 0ironlocket1 registered @ 2013-06-26 20:56:45, last login @ 2013-06-26 20:56:45
  52. 0aunt3text registered @ 2013-06-26 20:58:02, last login @ 2013-06-26 20:58:02
  53. 0energy0tanker registered @ 2013-06-26 20:59:13, last login @ 2013-06-26 20:59:13
  54. 0oil9nation registered @ 2013-06-26 20:59:39, last login @ 2013-06-26 20:59:39
  55. 0spot0panda registered @ 2013-06-26 21:02:04, last login @ 2013-06-26 21:02:04
  56. 0wristease33 registered @ 2013-06-26 21:02:21, last login @ 2013-06-26 21:02:21
  57. 0srinivas1969 registered @ 2013-06-26 21:02:27, last login @ 2013-06-26 21:02:27
  58. 0bangletoe55 registered @ 2013-06-26 21:03:12, last login @ 2013-06-26 21:03:12
  59. 0walkkaren7 registered @ 2013-06-26 21:03:21, last login @ 2013-06-26 21:49:51
  60. 0grasscomb22 registered @ 2013-06-26 21:05:06, last login @ 2013-06-26 21:05:06
  61. 0fghxfvdc registered @ 2013-06-26 21:05:24, last login @ 2013-06-26 21:05:24
  62. 0hill6bolt registered @ 2013-06-26 21:05:43, last login @ 2013-06-26 21:05:43
  63. 0hate7truck registered @ 2013-06-26 21:06:03, last login @ 2013-06-26 21:06:03
  64. 0spark63cd registered @ 2013-06-26 21:06:17, last login @ 2013-06-26 21:06:17
  65. 0dancer77shape registered @ 2013-06-26 21:06:45, last login @ 2013-06-26 21:06:45
  66. 0oxmark1 registered @ 2013-06-26 21:07:05, last login @ 2013-06-26 21:07:05
  67. 0jumbocar47 registered @ 2013-06-26 21:07:59, last login @ 2013-06-26 21:07:59
  68. 0stewbrandy7 registered @ 2013-06-26 21:08:18, last login @ 2013-06-26 21:08:18
  69. 0cerealsponge6 registered @ 2013-06-26 21:08:37, last login @ 2013-06-26 21:08:37
  70. 0zipper2cup registered @ 2013-06-26 21:08:56, last login @ 2013-06-26 21:08:56
  71. 0yamshade81 registered @ 2013-06-26 21:09:16, last login @ 2013-06-26 21:31:40
  72. 0bar6hate registered @ 2013-06-26 21:09:18, last login @ 2013-06-26 21:09:18
  73. 0use12kot12 registered @ 2013-06-26 21:10:46, last login @ 2013-06-26 21:10:46
  74. 0church4wind registered @ 2013-06-26 21:11:22, last login @ 2013-06-26 21:11:22
  75. 0river79weapon registered @ 2013-06-26 21:11:38, last login @ 2013-06-26 21:11:38
  76. 0horse47willow registered @ 2013-06-26 21:11:42, last login @ 2013-06-26 21:11:42
  77. 0pants66fender registered @ 2013-06-26 21:12:07, last login @ 2013-06-26 21:12:07
  78. 0broozywoono registered @ 2013-06-26 21:12:19, last login @ 2013-06-26 21:12:19
  79. 0alleynote40 registered @ 2013-06-26 21:13:01, last login @ 2013-06-26 21:13:01
  80. 0ghana61part registered @ 2013-06-26 21:14:44, last login @ 2013-06-26 21:14:44
  81. 0tunesofa71 registered @ 2013-06-26 21:14:52, last login @ 2013-06-26 21:14:52
  82. 0scentbaker5 registered @ 2013-06-26 21:17:32, last login @ 2013-06-26 21:17:32
  83. 0fightcereal14 registered @ 2013-06-26 21:17:41, last login @ 2013-06-26 21:26:09
  84. 0spotparrot48 registered @ 2013-06-26 21:18:39, last login @ 2013-06-26 21:18:39
  85. 0bead05soup registered @ 2013-06-26 21:19:14, last login @ 2013-06-26 21:25:54
  86. 0tunaplane1 registered @ 2013-06-26 21:19:40, last login @ 2013-06-26 21:19:40
  87. 0desertheron03 registered @ 2013-06-26 21:19:57, last login @ 2013-06-26 21:25:34
  88. 0blowroof4 registered @ 2013-06-26 21:20:59, last login @ 2013-06-26 21:20:59
  89. 0skill6credit registered @ 2013-06-26 21:21:01, last login @ 2013-06-26 21:21:01
  90. 0piano75cream registered @ 2013-06-26 21:21:50, last login @ 2013-06-26 21:21:50
  91. 0cotkayattKima registered @ 2013-06-26 21:21:53, last login @ 2013-06-26 21:21:53
  92. 0barber22cast registered @ 2013-06-26 21:22:15, last login @ 2013-06-26 21:22:15
  93. 0humorticket70 registered @ 2013-06-26 21:22:17, last login @ 2013-06-26 21:52:55
  94. 0curvefish55 registered @ 2013-06-26 21:22:33, last login @ 2013-06-26 21:22:33
  95. 0anime4glove registered @ 2013-06-26 21:25:23, last login @ 2013-06-26 21:25:23
  96. 0crate30pilot registered @ 2013-06-26 21:25:30, last login @ 2013-06-26 21:25:30
  97. 0portnovel80 registered @ 2013-06-26 21:25:38, last login @ 2013-06-26 21:25:38
  98. 0event68spoon registered @ 2013-06-26 21:25:47, last login @ 2013-06-26 21:25:47
  99. 0puma34parrot registered @ 2013-06-26 21:26:21, last login @ 2013-06-26 21:26:21
  100. 0ruthlamp7 registered @ 2013-06-26 21:26:51, last login @ 2013-06-26 21:26:51
  101. 0targetcheese30 registered @ 2013-06-26 21:29:47, last login @ 2013-06-26 21:29:47

More...

[8088] [8087] [8086] [8085] [8084] [8083] [8082] [8081] [8080] [8079] [8078] [8077] [8076] [8075] [8074] [8073] [8072] [8071] [8070] [8069] ...[1]
Back to Top